EGAC

George Best Belfast City Airport

Belfast, United Kingdom
METAR EGAC 190650Z 20011KT 9999 -SN SCT007 BKN011 01/01 Q1002 RESN
Observed Flight Rules
Jan-19 @ 06:50 UTC (34 minutes ago) Marginal Visual Flight Rules
Wind Visibility Clouds Conditions
200° at 11 knots 10,000+ meters
  • Scattered at 700' AGL
  • Broken at 1,100' AGL
  • Light Snow
Temperatures Readings
Current 1°C / 34°F
Dewpoint 1°C / 34°F
Humidity 100%
Altimeter 29.59" Hg
Pressure 1002 hPa
Elevation 5
METAR EGAC 190650Z 20011KT 9999 -SN SCT007 BKN011 01/01 Q1002 RESN
Observed Flight Rules
Jan-19 @ 06:50 UTC
(34 minutes ago)
MVFR
Wind Visibility
200° at 11 knots 10,000+ meters
Clouds
  • Scattered at 700' AGL
  • Broken at 1,100' AGL
Conditions
  • Light Snow
Temperature Dewpoint
1°C / 34°F 1°C / 34°F
Humidity Altimeter Pressure
100% 29.59" Hg 1002 hPa